Terminal Aerodrome Forecast
Issued by NWS

Home | Current Version | Previous Version | Text Only | Print | Product List | Glossary Off
Versions: 1 2 3 4 5 6 7 8 9 10 11 12 13 14 15 16 17 18 19 20

379
FTUS43 KABR 180310 AAB
TAFPIR
TAF AMD
KPIR 180310Z 1803/1824 11016KT P6SM VCSH FEW120 BKN150
     FM180500 21006KT P6SM SCT200
     FM180800 24004KT P6SM FEW250
     FM181400 30007KT P6SM FEW250
     FM181700 33011KT P6SM FEW200=

USA.gov is the U.S. government's official web portal to all federal, state and local government web resources and services.